Time;durP1;ratioP1;P1;durP2;ratioP2;P2;SDS_P1;SDS_P2;PMS_P1;PMS_P2;Temp;Humidity;BMP_temperature;BMP_pressure;BME280_temperature;BME280_humidity;BME280_pressure;Samples;Min_cycle;Max_cycle;Signal;HPM_P1;HPM_P2
2023/11/03 00:01:56;;;;;;;;;0.67;0.33;;;;;;;;5077021;28;45446;-47
2023/11/03 00:04:22;;;;;;;;;0.00;0.00;;;;;;;;5074920;27;45540;-46
2023/11/03 00:06:47;;;;;;;;;0.67;0.00;;;;;;;;5075896;27;45462;-47
2023/11/03 00:09:16;;;;;;;;;2.00;1.00;;;;;;;;5076568;28;45319;-49
2023/11/03 00:11:45;;;;;;;;;1.00;0.00;;;;;;;;5078497;28;45953;-47
2023/11/03 00:14:10;;;;;;;;;0.00;0.00;;;;;;;;5079509;28;45489;-46
2023/11/03 00:16:35;;;;;;;;;0.00;0.00;;;;;;;;5079302;28;45333;-47
2023/11/03 00:19:04;;;;;;;;;0.00;0.00;;;;;;;;5075863;28;46368;-47
2023/11/03 00:21:31;;;;;;;;;2.00;0.00;;;;;;;;5076240;28;45330;-46
2023/11/03 00:23:57;;;;;;;;;0.00;0.00;;;;;;;;5079566;27;45391;-47
2023/11/03 00:26:22;;;;;;;;;0.00;0.00;;;;;;;;5076291;27;45415;-47
2023/11/03 00:28:49;;;;;;;;;0.00;0.00;;;;;;;;5077229;28;45491;-47
2023/11/03 00:31:14;;;;;;;;;0.00;0.00;;;;;;;;5069752;28;45426;-48
2023/11/03 00:33:39;;;;;;;;;0.00;0.00;;;;;;;;5075230;28;45303;-48
2023/11/03 00:36:05;;;;;;;;;0.00;0.00;;;;;;;;5069433;28;45526;-46
2023/11/03 00:38:30;;;;;;;;;0.00;0.00;;;;;;;;5076977;27;45539;-48
2023/11/03 00:40:57;;;;;;;;;0.00;0.00;;;;;;;;5080913;28;45292;-46
2023/11/03 00:43:22;;;;;;;;;0.00;0.00;;;;;;;;5079970;28;45579;-47
2023/11/03 00:45:47;;;;;;;;;1.00;0.00;;;;;;;;5078846;27;45214;-47
2023/11/03 00:48:13;;;;;;;;;0.00;0.00;;;;;;;;5070372;27;47012;-46
2023/11/03 00:50:38;;;;;;;;;1.00;0.00;;;;;;;;5083130;27;46007;-48
2023/11/03 00:53:03;;;;;;;;;0.00;0.00;;;;;;;;5078492;27;45394;-46
2023/11/03 00:55:28;;;;;;;;;2.00;0.33;;;;;;;;5082507;27;45205;-49
2023/11/03 00:57:53;;;;;;;;;0.00;0.00;;;;;;;;5077693;27;46355;-47
2023/11/03 01:00:19;;;;;;;;;1.00;0.00;;;;;;;;5084832;27;45394;-46
2023/11/03 01:02:44;;;;;;;;;0.00;0.00;;;;;;;;5078526;27;45302;-48
2023/11/03 01:05:10;;;;;;;;;0.00;0.00;;;;;;;;5086282;27;45558;-47
2023/11/03 01:07:36;;;;;;;;;0.00;0.00;;;;;;;;5087472;27;45306;-48
2023/11/03 01:10:03;;;;;;;;;0.00;0.00;;;;;;;;5081925;27;45380;-46
2023/11/03 01:12:28;;;;;;;;;0.00;0.00;;;;;;;;5087176;27;45531;-47
2023/11/03 01:14:55;;;;;;;;;0.00;0.00;;;;;;;;5080238;27;45442;-49
2023/11/03 01:17:22;;;;;;;;;1.00;1.00;;;;;;;;5093139;27;45627;-48
2023/11/03 01:19:47;;;;;;;;;0.00;0.00;;;;;;;;5083615;27;45544;-47
2023/11/03 01:22:12;;;;;;;;;0.00;0.00;;;;;;;;5086214;27;45413;-48
2023/11/03 01:24:39;;;;;;;;;0.00;0.00;;;;;;;;5082933;27;45637;-45
2023/11/03 01:27:06;;;;;;;;;0.00;0.00;;;;;;;;5079905;27;46345;-46
2023/11/03 01:29:31;;;;;;;;;0.00;0.00;;;;;;;;5082966;27;45287;-48
2023/11/03 01:31:56;;;;;;;;;0.00;0.00;;;;;;;;5086896;27;45425;-48
2023/11/03 01:34:22;;;;;;;;;0.00;0.00;;;;;;;;5084162;27;45411;-46
2023/11/03 01:36:48;;;;;;;;;0.00;0.00;;;;;;;;5085397;27;46626;-46
2023/11/03 01:39:15;;;;;;;;;0.00;0.00;;;;;;;;5082267;27;45381;-48
2023/11/03 01:41:40;;;;;;;;;1.33;0.00;;;;;;;;5087761;27;45354;-49
2023/11/03 01:44:06;;;;;;;;;0.00;0.00;;;;;;;;5080749;27;45457;-49
2023/11/03 01:46:32;;;;;;;;;0.00;0.00;;;;;;;;5084377;27;46204;-46
2023/11/03 01:48:58;;;;;;;;;0.00;0.00;;;;;;;;5078425;27;45384;-47
2023/11/03 01:51:23;;;;;;;;;0.00;0.00;;;;;;;;5090380;27;45689;-46
2023/11/03 01:53:49;;;;;;;;;2.00;0.00;;;;;;;;5086105;27;45550;-45
2023/11/03 01:56:14;;;;;;;;;0.00;0.00;;;;;;;;5086387;27;46172;-45
2023/11/03 01:58:39;;;;;;;;;0.00;0.00;;;;;;;;5083408;27;45524;-47
2023/11/03 02:01:05;;;;;;;;;0.00;0.00;;;;;;;;5084612;27;45492;-49
2023/11/03 02:03:30;;;;;;;;;0.00;0.00;;;;;;;;5079451;27;45375;-47
2023/11/03 02:05:55;;;;;;;;;0.33;0.33;;;;;;;;5081305;27;46534;-49
2023/11/03 02:08:21;;;;;;;;;0.00;0.00;;;;;;;;5080112;27;45632;-49
2023/11/03 02:10:46;;;;;;;;;0.00;0.00;;;;;;;;5089756;27;45298;-47
2023/11/03 02:13:12;;;;;;;;;0.00;0.00;;;;;;;;5077276;27;45297;-47
2023/11/03 02:15:39;;;;;;;;;0.00;0.00;;;;;;;;5084648;27;45433;-47
2023/11/03 02:18:04;;;;;;;;;0.00;0.00;;;;;;;;5083280;27;45685;-47
2023/11/03 02:20:29;;;;;;;;;1.00;0.00;;;;;;;;5078098;27;45422;-49
2023/11/03 02:22:55;;;;;;;;;0.67;0.00;;;;;;;;5077292;27;45327;-47
2023/11/03 02:25:21;;;;;;;;;0.00;0.00;;;;;;;;5078666;27;46132;-47
2023/11/03 02:27:46;;;;;;;;;0.00;0.00;;;;;;;;5077307;27;45407;-47
2023/11/03 02:30:11;;;;;;;;;1.00;0.00;;;;;;;;5080443;27;45592;-47
2023/11/03 02:32:36;;;;;;;;;0.00;0.00;;;;;;;;5079453;27;45463;-47
2023/11/03 02:35:03;;;;;;;;;0.00;0.00;;;;;;;;5077781;27;45401;-46
2023/11/03 02:37:28;;;;;;;;;0.00;0.00;;;;;;;;5079337;27;45448;-48
2023/11/03 02:39:53;;;;;;;;;1.00;0.00;;;;;;;;5079921;27;45287;-47
2023/11/03 02:42:21;;;;;;;;;0.00;0.00;;;;;;;;5078688;27;45266;-49
2023/11/03 02:44:46;;;;;;;;;1.33;0.00;;;;;;;;5080526;27;46345;-48
2023/11/03 02:47:11;;;;;;;;;0.00;0.00;;;;;;;;5075761;27;45334;-47
2023/11/03 02:49:37;;;;;;;;;0.00;0.00;;;;;;;;5076684;27;45474;-47
2023/11/03 02:52:02;;;;;;;;;1.33;0.00;;;;;;;;5083329;27;45717;-47
2023/11/03 02:54:28;;;;;;;;;0.00;0.00;;;;;;;;5085104;27;46950;-47
2023/11/03 02:56:53;;;;;;;;;1.00;0.00;;;;;;;;5082775;27;45355;-49
2023/11/03 02:59:19;;;;;;;;;1.00;1.00;;;;;;;;5085860;27;45404;-46
2023/11/03 03:01:45;;;;;;;;;0.00;0.00;;;;;;;;5083766;27;45650;-48
2023/11/03 03:04:10;;;;;;;;;0.33;0.00;;;;;;;;5081152;27;46897;-48
2023/11/03 03:06:35;;;;;;;;;0.00;0.00;;;;;;;;5082532;27;45390;-47
2023/11/03 03:09:01;;;;;;;;;0.00;0.00;;;;;;;;5084473;27;45579;-47
2023/11/03 03:11:26;;;;;;;;;0.00;0.00;;;;;;;;5082735;27;45543;-46
2023/11/03 03:13:51;;;;;;;;;0.33;0.33;;;;;;;;5084319;27;45496;-47
2023/11/03 03:16:17;;;;;;;;;0.00;0.00;;;;;;;;5082489;27;45435;-47
2023/11/03 03:18:42;;;;;;;;;1.33;0.00;;;;;;;;5084026;27;45563;-47
2023/11/03 03:21:07;;;;;;;;;0.00;0.00;;;;;;;;5077303;27;45552;-48
2023/11/03 03:23:32;;;;;;;;;2.00;0.00;;;;;;;;5079898;27;45573;-48
2023/11/03 03:25:57;;;;;;;;;2.00;0.00;;;;;;;;5078740;27;45212;-47
2023/11/03 03:28:23;;;;;;;;;0.00;0.00;;;;;;;;5081972;27;45388;-48
2023/11/03 03:30:48;;;;;;;;;0.00;0.00;;;;;;;;5077292;27;45361;-47
2023/11/03 03:33:13;;;;;;;;;0.00;0.00;;;;;;;;5078022;27;45659;-48
2023/11/03 03:35:38;;;;;;;;;1.00;0.00;;;;;;;;5078586;27;45389;-47
2023/11/03 03:38:03;;;;;;;;;0.00;0.00;;;;;;;;5080393;27;45463;-46
2023/11/03 03:40:28;;;;;;;;;0.00;0.00;;;;;;;;5077837;27;45143;-48
2023/11/03 03:42:55;;;;;;;;;1.33;0.00;;;;;;;;5078825;27;46301;-47
2023/11/03 03:45:20;;;;;;;;;0.00;0.00;;;;;;;;5076804;27;45416;-46
2023/11/03 03:47:45;;;;;;;;;1.00;0.00;;;;;;;;5077822;27;45405;-46
2023/11/03 03:50:11;;;;;;;;;2.67;0.00;;;;;;;;5069720;27;45341;-47
2023/11/03 03:52:36;;;;;;;;;0.00;0.00;;;;;;;;5077674;27;46371;-47
2023/11/03 03:55:01;;;;;;;;;2.00;0.00;;;;;;;;5079755;27;45340;-48
2023/11/03 03:57:26;;;;;;;;;0.00;0.00;;;;;;;;5080055;27;45847;-47
2023/11/03 03:59:51;;;;;;;;;1.00;0.00;;;;;;;;5078657;27;45391;-46
2023/11/03 04:02:17;;;;;;;;;1.00;0.00;;;;;;;;5080336;27;45603;-47
2023/11/03 04:04:45;;;;;;;;;0.00;0.00;;;;;;;;5078593;27;45373;-49
2023/11/03 04:07:10;;;;;;;;;0.00;0.00;;;;;;;;5079809;27;45608;-47
2023/11/03 04:09:37;;;;;;;;;1.00;0.00;;;;;;;;5078725;27;45327;-47
2023/11/03 04:12:02;;;;;;;;;2.00;1.00;;;;;;;;5078778;27;45470;-47
2023/11/03 04:14:27;;;;;;;;;0.00;0.00;;;;;;;;5073932;27;45359;-47
2023/11/03 04:16:53;;;;;;;;;0.00;0.00;;;;;;;;5079403;27;45259;-47
2023/11/03 04:19:18;;;;;;;;;0.00;0.00;;;;;;;;5079069;27;45487;-47
2023/11/03 04:21:43;;;;;;;;;0.00;0.00;;;;;;;;5079487;27;46255;-49
2023/11/03 04:24:08;;;;;;;;;1.00;0.00;;;;;;;;5076485;27;45440;-49
2023/11/03 04:26:33;;;;;;;;;3.00;1.67;;;;;;;;5076556;27;47274;-49
2023/11/03 04:28:59;;;;;;;;;0.00;0.00;;;;;;;;5075559;27;45275;-49
2023/11/03 04:31:24;;;;;;;;;0.67;0.00;;;;;;;;5073958;27;45455;-46
2023/11/03 04:33:49;;;;;;;;;3.00;0.00;;;;;;;;5077077;27;45387;-47
2023/11/03 04:36:14;;;;;;;;;2.67;0.00;;;;;;;;5077572;27;45256;-47
2023/11/03 04:38:40;;;;;;;;;2.33;1.00;;;;;;;;5079291;27;45580;-47
2023/11/03 04:41:05;;;;;;;;;0.00;0.00;;;;;;;;5075093;27;46522;-47
2023/11/03 04:43:35;;;;;;;;;2.00;0.00;;;;;;;;5076620;27;45385;-46
2023/11/03 04:46:01;;;;;;;;;0.67;0.67;;;;;;;;5075384;27;45409;-46
2023/11/03 04:48:26;;;;;;;;;5.33;0.00;;;;;;;;5072038;27;45349;-46
2023/11/03 04:50:51;;;;;;;;;0.00;0.00;;;;;;;;5068326;27;45371;-45
2023/11/03 04:53:16;;;;;;;;;1.33;0.00;;;;;;;;5075485;28;45437;-47
2023/11/03 04:55:41;;;;;;;;;1.00;0.00;;;;;;;;5078272;27;45322;-46
2023/11/03 04:58:06;;;;;;;;;1.67;0.00;;;;;;;;5081331;27;45275;-48
2023/11/03 05:00:32;;;;;;;;;1.00;1.00;;;;;;;;5081413;27;46493;-48
2023/11/03 05:02:57;;;;;;;;;0.00;0.00;;;;;;;;5079504;27;45415;-47
2023/11/03 05:05:22;;;;;;;;;0.00;0.00;;;;;;;;5080205;27;45512;-47
2023/11/03 05:07:47;;;;;;;;;1.33;0.00;;;;;;;;5081873;27;45337;-48
2023/11/03 05:10:13;;;;;;;;;0.00;0.00;;;;;;;;5081373;27;45512;-46
2023/11/03 05:12:38;;;;;;;;;0.00;0.00;;;;;;;;5082051;27;45366;-45
2023/11/03 05:15:08;;;;;;;;;2.00;0.33;;;;;;;;5081585;27;45574;-49
2023/11/03 05:17:33;;;;;;;;;0.00;0.00;;;;;;;;5081937;27;45708;-46
2023/11/03 05:19:58;;;;;;;;;1.00;0.00;;;;;;;;5078580;27;46419;-47
2023/11/03 05:22:23;;;;;;;;;3.00;0.00;;;;;;;;5079356;27;45512;-47
2023/11/03 05:24:48;;;;;;;;;2.00;1.00;;;;;;;;5079121;27;45418;-48
2023/11/03 05:27:14;;;;;;;;;2.00;0.00;;;;;;;;5078073;27;45362;-45
2023/11/03 05:29:39;;;;;;;;;1.00;1.00;;;;;;;;5077590;27;45504;-47
2023/11/03 05:32:05;;;;;;;;;0.33;0.33;;;;;;;;5079658;28;45341;-47
2023/11/03 05:34:30;;;;;;;;;0.00;0.00;;;;;;;;5077319;27;45365;-47
2023/11/03 05:36:55;;;;;;;;;0.00;0.00;;;;;;;;5079320;27;45465;-46
2023/11/03 05:39:21;;;;;;;;;1.00;0.00;;;;;;;;5076503;27;46306;-46
2023/11/03 05:41:46;;;;;;;;;0.00;0.00;;;;;;;;5081611;27;46045;-47
2023/11/03 05:44:12;;;;;;;;;0.00;0.00;;;;;;;;5079198;27;45398;-45
2023/11/03 05:46:37;;;;;;;;;0.00;0.00;;;;;;;;5076131;27;45691;-46
2023/11/03 05:49:02;;;;;;;;;0.00;0.00;;;;;;;;5080385;27;46652;-46
2023/11/03 05:51:27;;;;;;;;;1.00;0.67;;;;;;;;5077138;27;45496;-47
2023/11/03 05:53:52;;;;;;;;;0.00;0.00;;;;;;;;5081605;27;45376;-46
2023/11/03 05:56:17;;;;;;;;;0.33;0.33;;;;;;;;5079051;27;45299;-46
2023/11/03 05:58:43;;;;;;;;;3.00;0.33;;;;;;;;5079587;27;45632;-47
2023/11/03 06:01:08;;;;;;;;;0.33;0.00;;;;;;;;5080274;27;45560;-49
2023/11/03 06:03:34;;;;;;;;;0.67;0.00;;;;;;;;5081945;27;46017;-50
2023/11/03 06:05:59;;;;;;;;;0.00;0.00;;;;;;;;5078825;27;45326;-46
2023/11/03 06:08:24;;;;;;;;;0.33;0.33;;;;;;;;5078914;27;45350;-48
2023/11/03 06:10:50;;;;;;;;;1.33;1.00;;;;;;;;5082288;27;45512;-48
2023/11/03 06:13:15;;;;;;;;;1.00;1.00;;;;;;;;5075394;27;45464;-47
2023/11/03 06:15:41;;;;;;;;;0.00;0.00;;;;;;;;5080328;27;45399;-46
2023/11/03 06:18:06;;;;;;;;;1.00;1.00;;;;;;;;5078636;27;46196;-46
2023/11/03 06:20:31;;;;;;;;;0.00;0.00;;;;;;;;5077435;27;45436;-46
2023/11/03 06:22:56;;;;;;;;;1.00;0.00;;;;;;;;5076068;27;45580;-47
2023/11/03 06:25:21;;;;;;;;;0.00;0.00;;;;;;;;5081024;27;45239;-47
2023/11/03 06:27:47;;;;;;;;;0.00;0.00;;;;;;;;5081028;27;45492;-46
2023/11/03 06:30:12;;;;;;;;;0.67;0.00;;;;;;;;5081724;27;45365;-47
2023/11/03 06:32:37;;;;;;;;;1.33;0.00;;;;;;;;5084107;27;45374;-48
2023/11/03 06:35:03;;;;;;;;;0.67;0.67;;;;;;;;5080769;27;45369;-49
2023/11/03 06:37:29;;;;;;;;;0.00;0.00;;;;;;;;5080201;27;45419;-47
2023/11/03 06:39:54;;;;;;;;;0.00;0.00;;;;;;;;5079466;27;45403;-46
2023/11/03 06:42:19;;;;;;;;;4.00;0.00;;;;;;;;5078958;27;45493;-46
2023/11/03 06:44:44;;;;;;;;;2.00;0.00;;;;;;;;5078477;27;45479;-50
2023/11/03 06:47:10;;;;;;;;;1.00;0.67;;;;;;;;5075621;27;47356;-47
2023/11/03 06:49:35;;;;;;;;;1.67;0.00;;;;;;;;5078752;27;45235;-47
2023/11/03 06:52:00;;;;;;;;;0.00;0.00;;;;;;;;5081016;27;45671;-46
2023/11/03 06:54:26;;;;;;;;;0.00;0.00;;;;;;;;5084416;27;45243;-46
2023/11/03 06:56:51;;;;;;;;;0.00;0.00;;;;;;;;5082086;27;45377;-47
2023/11/03 06:59:16;;;;;;;;;2.00;0.00;;;;;;;;5083752;27;45369;-47
2023/11/03 07:01:42;;;;;;;;;2.00;0.00;;;;;;;;5080930;27;45579;-46
2023/11/03 07:04:09;;;;;;;;;0.00;0.00;;;;;;;;5083963;27;45271;-46
2023/11/03 07:06:34;;;;;;;;;0.00;0.00;;;;;;;;5082160;27;45473;-47
2023/11/03 07:08:59;;;;;;;;;1.67;0.67;;;;;;;;5083445;27;45346;-49
2023/11/03 07:11:24;;;;;;;;;1.00;0.00;;;;;;;;5082252;27;45276;-49
2023/11/03 07:13:51;;;;;;;;;0.67;0.00;;;;;;;;5081788;27;45560;-49
2023/11/03 07:16:16;;;;;;;;;0.67;0.67;;;;;;;;5082255;27;45916;-47
2023/11/03 07:18:42;;;;;;;;;2.00;0.33;;;;;;;;5080926;27;45836;-51
2023/11/03 07:21:08;;;;;;;;;3.00;0.00;;;;;;;;5078943;27;46868;-48
2023/11/03 07:23:33;;;;;;;;;2.00;1.00;;;;;;;;5068267;27;45357;-50
2023/11/03 07:26:00;;;;;;;;;3.00;0.00;;;;;;;;5077148;28;47112;-49
2023/11/03 07:28:26;;;;;;;;;0.33;0.33;;;;;;;;5078566;28;45413;-50
2023/11/03 07:30:51;;;;;;;;;2.00;1.00;;;;;;;;5077243;27;45499;-52
2023/11/03 07:33:17;;;;;;;;;0.00;0.00;;;;;;;;5079715;28;45222;-49
2023/11/03 07:35:42;;;;;;;;;0.00;0.00;;;;;;;;5073564;28;45382;-52
2023/11/03 07:38:08;;;;;;;;;2.00;0.00;;;;;;;;5076850;28;45494;-51
2023/11/03 07:40:33;;;;;;;;;0.67;0.67;;;;;;;;5076484;28;45458;-49
2023/11/03 07:42:59;;;;;;;;;1.00;0.00;;;;;;;;5068130;28;45312;-50
2023/11/03 07:45:25;;;;;;;;;0.00;0.00;;;;;;;;5067549;28;48158;-50
2023/11/03 07:47:50;;;;;;;;;0.00;0.00;;;;;;;;5070826;28;45286;-49
2023/11/03 07:50:19;;;;;;;;;1.67;1.00;;;;;;;;5071515;28;45358;-52
2023/11/03 07:52:44;;;;;;;;;2.00;1.00;;;;;;;;5068253;28;45302;-48
2023/11/03 07:55:15;;;;;;;;;1.00;1.00;;;;;;;;5067833;28;45788;-50
2023/11/03 07:57:40;;;;;;;;;1.67;1.67;;;;;;;;5076451;28;45217;-50
2023/11/03 08:00:06;;;;;;;;;4.00;2.00;;;;;;;;5073693;28;45323;-49
2023/11/03 08:02:32;;;;;;;;;2.00;2.00;;;;;;;;5075268;28;45907;-52
2023/11/03 08:04:58;;;;;;;;;3.00;2.00;;;;;;;;5068855;28;45492;-49
2023/11/03 08:07:24;;;;;;;;;2.67;2.67;;;;;;;;5074941;27;45664;-49
2023/11/03 08:09:49;;;;;;;;;3.00;1.00;;;;;;;;5071334;28;45432;-49
2023/11/03 08:12:14;;;;;;;;;1.67;1.00;;;;;;;;5075406;28;45436;-49
2023/11/03 08:14:39;;;;;;;;;1.50;1.00;;;;;;;;5076903;28;45613;-52
2023/11/03 08:17:05;;;;;;;;;1.00;1.00;;;;;;;;5073109;28;45442;-50
2023/11/03 08:19:30;;;;;;;;;1.00;1.00;;;;;;;;5076168;28;45378;-50
2023/11/03 08:21:55;;;;;;;;;1.00;0.67;;;;;;;;5072679;28;45554;-53
2023/11/03 08:24:20;;;;;;;;;1.00;1.00;;;;;;;;5070172;28;48158;-48
2023/11/03 08:26:46;;;;;;;;;2.67;1.00;;;;;;;;5072889;28;45238;-51
2023/11/03 08:29:11;;;;;;;;;1.00;0.00;;;;;;;;5068649;27;45448;-50
2023/11/03 08:31:36;;;;;;;;;2.67;1.00;;;;;;;;5076943;28;45553;-49
2023/11/03 08:34:04;;;;;;;;;5.67;1.00;;;;;;;;5080553;27;45240;-50
2023/11/03 08:36:29;;;;;;;;;1.67;1.67;;;;;;;;5069681;28;45467;-49
2023/11/03 08:38:54;;;;;;;;;1.33;1.00;;;;;;;;5073762;28;45492;-49
2023/11/03 08:41:20;;;;;;;;;1.00;1.00;;;;;;;;5076695;28;45465;-48
2023/11/03 08:43:46;;;;;;;;;1.00;1.00;;;;;;;;5079912;27;46161;-50
2023/11/03 08:46:12;;;;;;;;;1.67;1.00;;;;;;;;5077294;28;45447;-50
2023/11/03 08:48:39;;;;;;;;;3.67;0.67;;;;;;;;5077739;28;45326;-48
2023/11/03 08:51:04;;;;;;;;;2.33;1.00;;;;;;;;5077313;28;45562;-48
2023/11/03 08:53:29;;;;;;;;;0.00;0.00;;;;;;;;5072210;28;45329;-49
2023/11/03 08:55:55;;;;;;;;;1.00;1.00;;;;;;;;5071515;28;45513;-49
2023/11/03 08:58:20;;;;;;;;;1.00;1.00;;;;;;;;5077572;28;45597;-50
2023/11/03 09:00:47;;;;;;;;;0.67;0.67;;;;;;;;5080554;28;45356;-51
2023/11/03 09:03:12;;;;;;;;;1.00;1.00;;;;;;;;5080631;27;47133;-51
2023/11/03 09:05:38;;;;;;;;;3.00;1.67;;;;;;;;5078597;27;45476;-49
2023/11/03 09:08:03;;;;;;;;;1.00;1.00;;;;;;;;5074158;28;45520;-48
2023/11/03 09:10:29;;;;;;;;;2.00;2.00;;;;;;;;5073292;28;45628;-49
2023/11/03 09:12:54;;;;;;;;;1.00;1.00;;;;;;;;5071255;27;45843;-54
2023/11/03 09:15:20;;;;;;;;;2.00;0.67;;;;;;;;5079396;27;45390;-48
2023/11/03 09:17:45;;;;;;;;;1.00;1.00;;;;;;;;5077116;27;45474;-50
2023/11/03 09:20:12;;;;;;;;;1.00;1.00;;;;;;;;5079174;27;45459;-50
2023/11/03 09:22:37;;;;;;;;;1.00;1.00;;;;;;;;5071897;27;46469;-48
2023/11/03 09:25:03;;;;;;;;;1.00;1.00;;;;;;;;5076142;27;45718;-49
2023/11/03 09:27:28;;;;;;;;;2.33;1.00;;;;;;;;5077395;27;45545;-49
2023/11/03 09:29:54;;;;;;;;;0.33;0.33;;;;;;;;5077894;27;45306;-52
2023/11/03 09:32:19;;;;;;;;;0.67;0.67;;;;;;;;5079076;27;46469;-50
2023/11/03 09:34:46;;;;;;;;;3.00;2.00;;;;;;;;5074631;27;45393;-49
2023/11/03 09:37:11;;;;;;;;;1.00;1.00;;;;;;;;5076845;27;45449;-49
2023/11/03 09:39:39;;;;;;;;;0.00;0.00;;;;;;;;5074969;27;45314;-52
2023/11/03 09:42:05;;;;;;;;;1.00;1.00;;;;;;;;5073748;27;45439;-49
2023/11/03 09:44:31;;;;;;;;;2.00;0.67;;;;;;;;5068206;28;45303;-50
2023/11/03 09:46:58;;;;;;;;;1.00;1.00;;;;;;;;5071801;27;45261;-49
2023/11/03 09:49:24;;;;;;;;;0.33;0.33;;;;;;;;5079098;27;45688;-49
2023/11/03 09:51:49;;;;;;;;;1.00;1.00;;;;;;;;5081442;27;46687;-50
2023/11/03 09:54:15;;;;;;;;;1.00;1.00;;;;;;;;5075934;27;45519;-51
2023/11/03 09:56:43;;;;;;;;;1.00;1.00;;;;;;;;5081654;27;45458;-50
2023/11/03 09:59:09;;;;;;;;;0.67;0.67;;;;;;;;5074275;27;45235;-50
2023/11/03 10:01:34;;;;;;;;;0.67;0.67;;;;;;;;5079312;27;46154;-52
2023/11/03 10:04:00;;;;;;;;;1.33;1.33;;;;;;;;5078896;27;45465;-52
2023/11/03 10:06:25;;;;;;;;;1.00;0.67;;;;;;;;5077411;27;45634;-50
2023/11/03 10:08:51;;;;;;;;;1.67;0.00;;;;;;;;5072862;27;45573;-50
2023/11/03 10:11:16;;;;;;;;;0.33;0.33;;;;;;;;5077048;27;46993;-54
2023/11/03 10:13:42;;;;;;;;;0.67;0.67;;;;;;;;5077778;27;45608;-55
2023/11/03 10:16:07;;;;;;;;;0.00;0.00;;;;;;;;5076517;27;45374;-55
2023/11/03 10:18:34;;;;;;;;;1.00;1.00;;;;;;;;5074259;27;45626;-56
2023/11/03 10:21:00;;;;;;;;;0.67;0.67;;;;;;;;5071355;27;45525;-56
2023/11/03 10:23:25;;;;;;;;;1.00;1.00;;;;;;;;5075003;27;45417;-56
2023/11/03 10:25:51;;;;;;;;;0.33;0.33;;;;;;;;5078880;27;45454;-56
2023/11/03 10:28:17;;;;;;;;;1.33;0.67;;;;;;;;5080149;27;45614;-56
2023/11/03 10:30:43;;;;;;;;;1.00;0.00;;;;;;;;5080274;27;45347;-56
2023/11/03 10:33:09;;;;;;;;;1.67;0.67;;;;;;;;5073900;27;45708;-57
2023/11/03 10:35:35;;;;;;;;;1.00;1.00;;;;;;;;5074669;27;45533;-55
2023/11/03 10:38:01;;;;;;;;;0.00;0.00;;;;;;;;5078940;27;45577;-57
2023/11/03 10:40:26;;;;;;;;;0.00;0.00;;;;;;;;5076801;27;45490;-57
2023/11/03 10:42:53;;;;;;;;;1.00;1.00;;;;;;;;5078392;27;45792;-57
2023/11/03 10:45:20;;;;;;;;;1.00;1.00;;;;;;;;5079345;27;45582;-57
2023/11/03 10:48:04;;;;;;;;;2.00;2.00;;;;;;;;5071720;27;45849;-57
2023/11/03 10:50:36;;;;;;;;;1.33;1.00;;;;;;;;5071452;28;46877;-57
2023/11/03 10:53:09;;;;;;;;;1.00;1.00;;;;;;;;5077145;27;45734;-58
2023/11/03 10:55:38;;;;;;;;;1.00;1.00;;;;;;;;5080694;27;45720;-58
2023/11/03 10:58:03;;;;;;;;;1.00;1.00;;;;;;;;5087330;27;45696;-57
2023/11/03 11:00:39;;;;;;;;;0.00;0.00;;;;;;;;5080799;27;45973;-56
2023/11/03 11:03:09;;;;;;;;;3.00;3.00;;;;;;;;5073599;27;45526;-58
2023/11/03 11:05:38;;;;;;;;;0.67;0.67;;;;;;;;5078148;27;45431;-57
2023/11/03 11:08:04;;;;;;;;;1.00;1.00;;;;;;;;5076013;27;45518;-57
2023/11/03 11:10:42;;;;;;;;;0.00;0.00;;;;;;;;5082046;27;45668;-57
2023/11/03 11:13:21;;;;;;;;;0.00;0.00;;;;;;;;5072951;27;45381;-59
2023/11/03 11:16:05;;;;;;;;;0.33;0.33;;;;;;;;5070662;27;45783;-57
2023/11/03 11:18:40;;;;;;;;;2.67;0.67;;;;;;;;5079469;27;45499;-57
2023/11/03 11:21:06;;;;;;;;;3.67;1.00;;;;;;;;5079500;27;46410;-56
2023/11/03 11:23:43;;;;;;;;;0.67;0.33;;;;;;;;5078460;28;45362;-56
2023/11/03 11:26:18;;;;;;;;;1.00;1.00;;;;;;;;5079366;27;45518;-56
2023/11/03 11:28:43;;;;;;;;;1.00;1.00;;;;;;;;5066929;27;45662;-58
2023/11/03 11:31:24;;;;;;;;;2.67;0.67;;;;;;;;5077558;28;46309;-56
2023/11/03 11:34:05;;;;;;;;;1.33;1.33;;;;;;;;5079988;27;45276;-56
2023/11/03 11:36:34;;;;;;;;;0.33;0.33;;;;;;;;5079031;27;45401;-56
2023/11/03 11:39:00;;;;;;;;;0.67;0.67;;;;;;;;5079634;27;45619;-57
2023/11/03 11:41:27;;;;;;;;;0.67;0.67;;;;;;;;5078822;27;46385;-58
2023/11/03 11:43:55;;;;;;;;;3.33;1.33;;;;;;;;5077461;27;45516;-58
2023/11/03 11:46:21;;;;;;;;;2.67;0.67;;;;;;;;5078715;27;45422;-58
2023/11/03 11:48:48;;;;;;;;;1.00;0.33;;;;;;;;5079347;27;45456;-58
2023/11/03 11:51:13;;;;;;;;;0.00;0.00;;;;;;;;5073106;27;45437;-58
2023/11/03 11:53:38;;;;;;;;;2.00;1.33;;;;;;;;5085740;27;45369;-58
2023/11/03 11:56:05;;;;;;;;;4.00;3.00;;;;;;;;5078696;27;45371;-58
2023/11/03 11:58:31;;;;;;;;;0.00;0.00;;;;;;;;5086307;27;45678;-58
2023/11/03 12:00:56;;;;;;;;;1.00;1.00;;;;;;;;5086512;27;45430;-57
2023/11/03 12:03:22;;;;;;;;;0.67;0.67;;;;;;;;5080898;27;45344;-57
2023/11/03 12:05:47;;;;;;;;;1.00;1.00;;;;;;;;5087737;27;45373;-58
2023/11/03 12:08:12;;;;;;;;;1.00;1.00;;;;;;;;5086001;27;45275;-58
2023/11/03 12:10:38;;;;;;;;;0.00;0.00;;;;;;;;5087735;27;45386;-58
2023/11/03 12:13:04;;;;;;;;;0.00;0.00;;;;;;;;5082036;27;45460;-58
2023/11/03 12:15:30;;;;;;;;;0.00;0.00;;;;;;;;5087859;27;45346;-58
2023/11/03 12:17:55;;;;;;;;;5.00;4.00;;;;;;;;5086497;27;45500;-58
2023/11/03 12:20:20;;;;;;;;;2.00;2.00;;;;;;;;5069562;27;45663;-57
2023/11/03 12:22:45;;;;;;;;;1.00;1.00;;;;;;;;5075489;27;45315;-57
2023/11/03 12:25:10;;;;;;;;;1.00;1.00;;;;;;;;5067198;27;45468;-58
2023/11/03 12:27:37;;;;;;;;;1.00;1.00;;;;;;;;5072372;27;45303;-58
2023/11/03 12:30:03;;;;;;;;;1.00;1.00;;;;;;;;5073897;27;46724;-57
2023/11/03 12:32:31;;;;;;;;;1.33;0.00;;;;;;;;5072082;27;45599;-57
2023/11/03 12:34:56;;;;;;;;;0.33;0.33;;;;;;;;5079959;27;45429;-57
2023/11/03 12:37:22;;;;;;;;;0.00;0.00;;;;;;;;5081640;27;45338;-57
2023/11/03 12:39:47;;;;;;;;;1.00;1.00;;;;;;;;5064315;28;45560;-57
2023/11/03 12:42:13;;;;;;;;;1.00;1.00;;;;;;;;5069507;27;45276;-57
2023/11/03 12:44:51;;;;;;;;;1.00;0.00;;;;;;;;5064256;28;45554;-57
2023/11/03 12:47:35;;;;;;;;;1.00;1.00;;;;;;;;5068002;27;45324;-58
2023/11/03 12:50:11;;;;;;;;;1.00;1.00;;;;;;;;5081684;27;45521;-58
2023/11/03 12:52:36;;;;;;;;;1.67;1.00;;;;;;;;5078667;27;45351;-58
2023/11/03 12:55:01;;;;;;;;;1.00;1.00;;;;;;;;5077726;27;45425;-58
2023/11/03 12:57:36;;;;;;;;;5.33;4.67;;;;;;;;5086476;27;45454;-58
2023/11/03 13:00:07;;;;;;;;;2.00;2.00;;;;;;;;5077618;27;47285;-56
2023/11/03 13:02:34;;;;;;;;;0.00;0.00;;;;;;;;5087236;27;45396;-57
2023/11/03 13:05:04;;;;;;;;;0.00;0.00;;;;;;;;5079064;27;45435;-57
2023/11/03 13:07:29;;;;;;;;;1.00;1.00;;;;;;;;5081451;27;45509;-58
2023/11/03 13:09:54;;;;;;;;;0.00;0.00;;;;;;;;5080417;27;45962;-57
2023/11/03 13:12:19;;;;;;;;;0.00;0.00;;;;;;;;5085168;27;45426;-58
2023/11/03 13:14:45;;;;;;;;;0.00;0.00;;;;;;;;5081347;27;45587;-57
2023/11/03 13:17:14;;;;;;;;;0.00;0.00;;;;;;;;5073879;27;45548;-58
2023/11/03 13:19:43;;;;;;;;;0.33;0.00;;;;;;;;5070597;27;45536;-58
2023/11/03 13:22:08;;;;;;;;;1.00;1.00;;;;;;;;5082134;27;46602;-57
2023/11/03 13:24:34;;;;;;;;;0.33;0.33;;;;;;;;5078757;27;45456;-57
2023/11/03 13:27:01;;;;;;;;;1.00;1.00;;;;;;;;5085359;27;45606;-58
2023/11/03 13:29:26;;;;;;;;;0.00;0.00;;;;;;;;5073802;27;45448;-59
2023/11/03 13:31:52;;;;;;;;;1.00;1.00;;;;;;;;5084195;27;45373;-57
2023/11/03 13:34:17;;;;;;;;;0.00;0.00;;;;;;;;5073943;27;45577;-58
2023/11/03 13:36:42;;;;;;;;;0.00;0.00;;;;;;;;5083355;27;45584;-57
2023/11/03 13:39:08;;;;;;;;;0.00;0.00;;;;;;;;5080055;27;45688;-58
2023/11/03 13:41:33;;;;;;;;;0.67;0.00;;;;;;;;5089970;27;45796;-57
2023/11/03 13:43:58;;;;;;;;;0.00;0.00;;;;;;;;5080771;27;45512;-58
2023/11/03 13:46:24;;;;;;;;;1.00;0.00;;;;;;;;5074659;27;45725;-58
2023/11/03 13:48:50;;;;;;;;;0.00;0.00;;;;;;;;5079379;27;45569;-58
2023/11/03 13:51:15;;;;;;;;;1.00;1.00;;;;;;;;5076629;27;45491;-58
2023/11/03 13:53:40;;;;;;;;;1.00;0.00;;;;;;;;5075195;27;45375;-58
2023/11/03 13:56:06;;;;;;;;;0.00;0.00;;;;;;;;5081543;27;45621;-58
2023/11/03 13:58:31;;;;;;;;;0.00;0.00;;;;;;;;5079876;27;45345;-58
2023/11/03 14:00:57;;;;;;;;;0.67;0.67;;;;;;;;5083934;27;45449;-58
2023/11/03 14:03:22;;;;;;;;;1.00;0.00;;;;;;;;5081257;27;45376;-58
2023/11/03 14:05:47;;;;;;;;;0.00;0.00;;;;;;;;5083028;27;45621;-58
2023/11/03 14:08:13;;;;;;;;;0.00;0.00;;;;;;;;5084106;27;46238;-58
2023/11/03 14:10:39;;;;;;;;;0.00;0.00;;;;;;;;5075585;27;45269;-59
2023/11/03 14:13:04;;;;;;;;;0.00;0.00;;;;;;;;5076424;27;45441;-59
2023/11/03 14:15:30;;;;;;;;;0.00;0.00;;;;;;;;5081069;27;45465;-57
2023/11/03 14:17:56;;;;;;;;;0.00;0.00;;;;;;;;5075596;27;45762;-58
2023/11/03 14:20:21;;;;;;;;;0.00;0.00;;;;;;;;5075615;27;45674;-58
2023/11/03 14:22:47;;;;;;;;;0.00;0.00;;;;;;;;5086949;27;45822;-58
2023/11/03 14:25:13;;;;;;;;;0.00;0.00;;;;;;;;5084044;27;45285;-58
2023/11/03 14:27:38;;;;;;;;;0.00;0.00;;;;;;;;5089626;27;46083;-57
2023/11/03 14:30:04;;;;;;;;;0.00;0.00;;;;;;;;5085888;27;45451;-57
2023/11/03 14:32:29;;;;;;;;;0.00;0.00;;;;;;;;5085882;27;45378;-57
2023/11/03 14:34:54;;;;;;;;;0.00;0.00;;;;;;;;5077622;27;45671;-57
2023/11/03 14:37:21;;;;;;;;;0.00;0.00;;;;;;;;5083305;27;46256;-57